メインページ
METAR-TAF:

METAR-TAF

空港 :

Fort Nelson, ブリティッシュコロンビア州, カナダ

緯度: 58-50N, 経度: 122-35W, 海抜: 382m

現時点の気象観測

当レポートは42分前の17:25(UTC)に作成
北西の風 6kt
気温 -16°C
湿度 71%
気圧 999 hPa
視程: 48.3km
高度1500ftの雲は散在している
高度8000ftの千切れ雲あり
小雪, 凍雨

METAR: CYYE 171725Z 31006KT 30SM -SNPL SCT015 BKN080 M16/M20 A2950 RMK SC4AC3 SLP029

時間: 10:07 (18:07 UTC)

予報

当レポートは26分前の17:41(UTC)に作成
予報は17日の 17時(UTC)から 18日の 01時(UTC)まで有効
北西の風 6kt
視程: 10km
高度1500ftの雲は散在している
高度3000ftの曇り
小雪
17日の 17時(UTC)から 17日の 21時(UTC)まで一時的に
視程: 6.4km
高度1500ftの曇り
小雪, 凍雨
17日の 2100時(UTC)から
北西の風 6kt
視程: 10km
高度2000ftの雲は散在している
高度7000ftの千切れ雲あり
確率 30%
17日の 21時(UTC)から 18日の 01時(UTC)まで
視程: 9.7km
(弱い) 凍雨, 靄

TAF: CYYE 171741Z 1717/1801 31006KT P6SM -SN SCT015 OVC030 TEMPO 1717/1721 4SM -SNPL OVC015 FM172100 31006KT P6SM SCT020 BKN070 PROB30 1721/1801 6SM -PL BR RMK NXT FCST BY 171900Z

4,000以上の空港の気象観測と天気予報(METAR報とTAF報)

利用可能な観測所は地図上に黄色い丸と赤い丸で示す。

丸の上にカーソルを重ねると観測所名を参照できる。

次にクリックすると気象観測と天気予報を参照できる。

マップの切り替え:黒色「×」印の緑ボタンをクリックして拡大、「-」印の緑ボタンをクリックして縮小、緑色の三角印をクリックして隣りの地図に切り替え


METAR-TAF: